M I D A S
Marine Information and Data Acquisition System
Tripno 1494 of the Zeeleeuw from 2008-05-28 06:27:09 to 2008-05-28 15:19:20
Back to CruiseResearch ActivitiesStationsMapUnderway DataData graphs

EquipmentUnitsComment
TimeDGPSUTC
LatitudeDGPSDM.mWGS84
LongitudeDGPSDM.mWGS84
HeadingGyrodeg 
SOGDGPSknotsSpeed over ground
COGDGPSdegCourse over ground
DepthEcho soundermeters200 kHz
Missing or incorrect values are displayed as -999
Navigation data collected by the RV Zeeleeuw from 2008-05-28 06:27:47 to 2008-05-28 15:23:53
Time Latitude Longitude Heading SOG COG Depth
2008-05-28 06:28:52 51°13.643 2°55.981 113.4 4.2 296 -999
2008-05-28 06:29:53 51°13.677 2°55.862 106.6 5 291 -999
2008-05-28 06:30:52 51°13.691 2°55.762 85.7 3 274 13.9
2008-05-28 06:31:52 51°13.693 2°55.729 48.8 0.6 -999 14.6
2008-05-28 06:32:52 51°13.73 2°55.721 344.7 3.8 340 12.9
2008-05-28 06:33:52 51°13.826 2°55.64 333.9 7.9 334 12.1
2008-05-28 06:34:52 51°13.955 2°55.552 336.2 8.7 338 12.5
2008-05-28 06:35:52 51°14.069 2°55.472 333.6 6.3 334 12.5
2008-05-28 06:36:52 51°14.155 2°55.407 335.1 5.6 335 12.6
2008-05-28 06:37:52 51°14.237 2°55.332 320.7 5.9 320 11.9
2008-05-28 06:38:52 51°14.31 2°55.193 303.4 7.9 304 -999
2008-05-28 06:39:52 51°14.408 2°54.998 314.9 10.9 321 12.5
2008-05-28 06:40:52 51°14.58 2°54.84 323.7 12.4 329 11.9
2008-05-28 06:41:52 51°14.763 2°54.673 327.5 12.6 332 11.6
2008-05-28 06:42:52 51°14.95 2°54.524 326.5 12.5 332 11.4
2008-05-28 06:43:52 51°15.131 2°54.363 326 12.4 330 10.8
2008-05-28 06:44:51 51°15.304 2°54.193 324.3 12.6 330 11.3
2008-05-28 06:45:52 51°15.49 2°54.03 326.6 12.6 332 12.2
2008-05-28 06:46:52 51°15.672 2°53.867 324.1 12.4 330 12.9
2008-05-28 06:47:52 51°15.856 2°53.711 326.6 12.6 333 13.1
2008-05-28 06:48:53 51°16.037 2°53.543 323.2 12.5 331 13.3
2008-05-28 06:49:52 51°16.216 2°53.387 326.5 12.6 333 13.7
2008-05-28 06:50:52 51°16.401 2°53.23 326.9 12.5 332 13.8
2008-05-28 06:51:52 51°16.582 2°53.061 323.4 12.7 330 13.8
2008-05-28 06:52:53 51°16.771 2°52.9 327 12.5 333 12.9
2008-05-28 06:53:52 51°16.957 2°52.748 327 12.9 333 11.5
2008-05-28 06:54:52 51°17.15 2°52.603 330.4 12.7 336 11.4
2008-05-28 06:55:53 51°17.352 2°52.473 336.8 13 342 12.3
2008-05-28 06:56:52 51°17.555 2°52.385 342.9 12.8 348 12.3
2008-05-28 06:57:53 51°17.771 2°52.321 345.2 12.9 348 12.2
2008-05-28 06:58:52 51°17.982 2°52.278 353.4 13.1 356 12.6
2008-05-28 06:59:53 51°18.204 2°52.278 358.8 13 2 12.7
2008-05-28 07:00:52 51°18.417 2°52.284 359.2 12.9 2 13.1
2008-05-28 07:01:52 51°18.634 2°52.305 0.6 13 2 13.9
2008-05-28 07:02:52 51°18.852 2°52.32 1.7 13.1 4 14.6
2008-05-28 07:03:52 51°19.07 2°52.332 358.8 13.1 1 15.5
2008-05-28 07:04:53 51°19.294 2°52.344 359.9 13.4 2 16.5
2008-05-28 07:05:52 51°19.512 2°52.375 4 13.2 5 17.4
2008-05-28 07:06:52 51°19.735 2°52.397 1 13.4 3 17.7
2008-05-28 07:07:52 51°19.957 2°52.432 3.7 13.5 5 18
2008-05-28 07:08:50 51°20.171 2°52.487 10.1 13.5 12 18.1
2008-05-28 07:09:49 51°20.385 2°52.552 9.8 13.2 11 17.7
2008-05-28 07:10:49 51°20.601 2°52.618 7.6 13.1 8 17.4
2008-05-28 07:11:49 51°20.819 2°52.652 4.3 13.1 7 16.3
2008-05-28 07:12:49 51°21.036 2°52.681 0.5 13 2 16.4
2008-05-28 07:13:49 51°21.254 2°52.705 2.3 13.1 3 18.4
2008-05-28 07:14:49 51°21.474 2°52.733 2.6 13.2 4 19.6
2008-05-28 07:15:49 51°21.693 2°52.754 1.7 13.2 4 21.2
2008-05-28 07:16:49 51°21.914 2°52.78 0.8 13.3 3 23.6
2008-05-28 07:17:49 51°22.137 2°52.81 2.4 13.4 4 25.6
2008-05-28 07:18:49 51°22.358 2°52.837 1.4 13.4 4 25.4
2008-05-28 07:19:49 51°22.58 2°52.868 3.1 13.5 6 24.5
2008-05-28 07:20:49 51°22.804 2°52.901 2.1 13.6 5 24.2
2008-05-28 07:21:49 51°23.025 2°52.93 2.2 13.3 5 23.9
2008-05-28 07:22:49 51°23.249 2°52.962 1.7 13.5 4 22.5
2008-05-28 07:23:49 51°23.473 2°52.992 4.3 13.7 6 22.6
2008-05-28 07:24:49 51°23.697 2°53.031 2.5 13.5 4 23.3
2008-05-28 07:25:49 51°23.923 2°53.068 5 13.6 7 20.6
2008-05-28 07:26:49 51°24.149 2°53.103 2.5 13.6 5 19.8
2008-05-28 07:27:49 51°24.372 2°53.137 4.4 13.6 6 20.1
2008-05-28 07:28:49 51°24.596 2°53.17 3 13.4 3 21
2008-05-28 07:29:49 51°24.815 2°53.187 1.4 13.2 3 20.4
2008-05-28 07:30:49 51°25.037 2°53.204 359.8 13.3 1 22.3
2008-05-28 07:31:49 51°25.257 2°53.215 2.8 13.2 5 24.1
2008-05-28 07:32:49 51°25.478 2°53.248 3.5 13.5 5 25.3
2008-05-28 07:33:49 51°25.7 2°53.275 0.6 13.3 3 26.9
2008-05-28 07:34:49 51°25.923 2°53.303 3.4 13.7 7 29.6
2008-05-28 07:35:49 51°26.147 2°53.331 1.7 13.5 4 32.1
2008-05-28 07:36:49 51°26.371 2°53.351 0.9 13.3 4 32.8
2008-05-28 07:37:49 51°26.592 2°53.379 2.6 13.3 4 32.9
2008-05-28 07:38:49 51°26.813 2°53.411 3.3 13.4 5 29.5
2008-05-28 07:39:49 51°27.036 2°53.433 1.2 13.3 4 29.7
2008-05-28 07:40:49 51°27.257 2°53.464 3 13.5 6 28.4
2008-05-28 07:41:49 51°27.481 2°53.493 1.8 13.5 6 27.1
2008-05-28 07:42:49 51°27.705 2°53.519 0.6 13.4 4 22.1
2008-05-28 07:43:49 51°27.927 2°53.547 1.6 13.1 5 23
2008-05-28 07:44:49 51°28.148 2°53.58 3.8 13.6 6 22.3
2008-05-28 07:45:49 51°28.371 2°53.619 2.8 13.5 6 23.9
2008-05-28 07:46:49 51°28.593 2°53.649 2.6 13.2 4 25.9
2008-05-28 07:47:49 51°28.813 2°53.67 0.6 13.4 3 27.2
2008-05-28 07:48:49 51°29.034 2°53.689 0.2 13.3 2 28.6
2008-05-28 07:49:49 51°29.256 2°53.71 0.4 13.5 3 30.2
2008-05-28 07:50:49 51°29.478 2°53.731 -999 13.2 4 31.1
2008-05-28 07:51:49 51°29.699 2°53.757 1.3 13.4 4 32.5
2008-05-28 07:52:49 51°29.921 2°53.783 0.5 13.4 4 33.3
2008-05-28 07:53:49 51°30.143 2°53.805 0.6 13.5 3 32.8
2008-05-28 07:54:49 51°30.367 2°53.826 359.1 13.4 3 35.4
2008-05-28 07:55:49 51°30.589 2°53.847 359.7 13.3 3 28.6
2008-05-28 07:56:49 51°30.813 2°53.871 359.8 13.5 2 19.3
2008-05-28 07:57:49 51°31.04 2°53.895 0.9 13.7 3 20.3
2008-05-28 07:58:49 51°31.265 2°53.918 0.1 13.4 3 17.6
2008-05-28 07:59:49 51°31.489 2°53.939 359.9 13.5 4 21.3
2008-05-28 08:00:49 51°31.714 2°53.955 359.2 13.6 3 19.8
2008-05-28 08:01:49 51°31.941 2°53.977 0.1 13.6 3 23.1
2008-05-28 08:02:49 51°32.168 2°53.999 1.3 13.8 4 23.8
2008-05-28 08:03:49 51°32.394 2°54.019 359.6 13.7 3 23.7
2008-05-28 08:04:49 51°32.622 2°54.041 1.2 13.8 5 26.4
2008-05-28 08:05:49 51°32.85 2°54.066 1.3 13.8 4 25.8
2008-05-28 08:06:49 51°33.076 2°54.095 6.2 13.5 7 26.5
2008-05-28 08:07:49 51°33.294 2°54.183 20.5 13.4 22 26.6
2008-05-28 08:08:49 51°33.5 2°54.329 27.1 13.7 28 27.1
2008-05-28 08:09:49 51°33.697 2°54.507 30.4 13.6 29 29.9
2008-05-28 08:10:49 51°33.893 2°54.687 31.7 13.6 31 31.1
2008-05-28 08:11:49 51°34.083 2°54.889 36.7 13.5 36 29.3
2008-05-28 08:12:49 51°34.264 2°55.109 38.5 13.7 37 30.3
2008-05-28 08:13:49 51°34.437 2°55.242 17.8 8.4 18 32.8
2008-05-28 08:14:49 51°34.529 2°55.233 313 4.1 327 32.3
2008-05-28 08:15:49 51°34.527 2°55.146 221.9 4.2 227 33.6
2008-05-28 08:16:49 51°34.483 2°55.075 215.7 1.9 227 31.3
2008-05-28 08:17:49 51°34.483 2°55.067 227.4 0.6 6 31.5
2008-05-28 08:18:49 51°34.497 2°55.066 232.3 0.9 352 31.6
2008-05-28 08:19:49 51°34.509 2°55.067 221 0.7 13 31.5
2008-05-28 08:20:49 51°34.514 2°55.069 203 0.2 149 31.1
2008-05-28 08:21:49 51°34.509 2°55.071 196.5 0.2 178 31.6
2008-05-28 08:22:49 51°34.506 2°55.073 194.4 0.1 135 31.6
2008-05-28 08:23:49 51°34.505 2°55.077 192.8 0.2 69 31.8
2008-05-28 08:24:49 51°34.507 2°55.082 193.6 0.2 65 31.8
2008-05-28 08:25:49 51°34.507 2°55.086 195.4 0.2 110 31.8
2008-05-28 08:26:49 51°34.505 2°55.086 196 0.1 180 32.2
2008-05-28 08:27:49 51°34.44 2°55.174 197.5 0.2 158 32.1
2008-05-28 08:28:49 51°34.502 2°55.088 197.8 -999 52 32.1
2008-05-28 08:29:49 51°34.503 2°55.089 197.4 0.1 118 32.2
2008-05-28 08:30:49 51°34.503 2°55.088 198.6 0.1 107 32
2008-05-28 08:31:49 51°34.503 2°55.087 197.3 0.1 75 32.1
2008-05-28 08:32:49 51°34.503 2°55.089 196.1 0.1 76 32.1
2008-05-28 08:33:49 51°34.503 2°55.089 197.9 0.1 351 32.2
2008-05-28 08:34:49 51°34.502 2°55.089 197.5 0.1 252 32.1
2008-05-28 08:35:49 51°34.502 2°55.089 197.3 -999 49 32.1
2008-05-28 08:36:49 51°34.503 2°55.088 196.8 0.1 88 31.9
2008-05-28 08:37:49 51°34.502 2°55.087 196.2 0.1 213 31.9
2008-05-28 08:38:49 51°34.503 2°55.087 195.1 0.1 154 32
2008-05-28 08:39:49 51°34.505 2°55.087 195.1 0.2 356 32
2008-05-28 08:40:49 51°34.504 2°55.084 194 0.1 225 32.1
2008-05-28 08:41:49 51°34.502 2°55.085 195.1 0.1 212 31.9
2008-05-28 08:42:49 51°34.5 2°55.083 194.7 0.1 308 31.8
2008-05-28 08:43:49 51°34.504 2°55.084 196.3 0.1 337 31.8
2008-05-28 08:44:49 51°34.505 2°55.084 198.3 0.2 313 31.8
2008-05-28 08:45:49 51°34.504 2°55.082 196.6 -999 32 31.8
2008-05-28 08:46:49 51°34.506 2°55.079 195.1 0.3 319 31.9
2008-05-28 08:47:49 51°34.508 2°55.079 195.1 0.1 343 31.7
2008-05-28 08:48:49 51°34.509 2°55.077 194.2 -999 217 31.6
2008-05-28 08:49:49 51°34.508 2°55.075 191.6 -999 138 31.6
2008-05-28 08:50:49 51°34.508 2°55.075 190.8 -999 14 31.7
2008-05-28 08:51:49 51°34.509 2°55.074 191.3 0.1 312 31.4
2008-05-28 08:52:49 51°34.509 2°55.075 189.8 -999 216 31.6
2008-05-28 08:53:49 51°34.508 2°55.075 189.1 0.2 114 31.4
2008-05-28 08:54:49 51°34.508 2°55.074 189.3 0.1 243 31.4
2008-05-28 08:55:49 51°34.508 2°55.075 190 0.1 349 31.5
2008-05-28 08:56:49 51°34.509 2°55.074 189.3 0.1 14 31.5
2008-05-28 08:57:49 51°34.509 2°55.074 189.6 -999 275 31.4
2008-05-28 08:58:49 51°34.508 2°55.073 189.7 0.1 191 31.3
2008-05-28 08:59:49 51°34.508 2°55.073 188.2 0.1 116 31.3
2008-05-28 09:00:49 51°34.508 2°55.072 186.3 0.1 288 31.4
2008-05-28 09:01:49 51°34.509 2°55.072 186.6 0.1 287 31.5
2008-05-28 09:02:49 51°34.508 2°55.071 185.8 0.1 234 31.2
2008-05-28 09:03:49 51°34.508 2°55.07 185.4 0.1 227 31
2008-05-28 09:04:49 51°34.508 2°55.069 185.1 -999 309 31.1
2008-05-28 09:05:49 51°34.51 2°55.067 183.6 0.1 323 31.1
2008-05-28 09:06:49 51°34.51 2°55.068 184.2 0.1 56 31.2
2008-05-28 09:07:49 51°34.511 2°55.067 184.4 -999 339 31.2
2008-05-28 09:08:49 51°34.51 2°55.065 182.2 0.1 269 31.2
2008-05-28 09:09:49 51°34.51 2°55.064 181.4 0.1 49 31.1
2008-05-28 09:10:49 51°34.51 2°55.064 182.1 0.1 335 31.1
2008-05-28 09:11:49 51°34.511 2°55.062 179.9 0.1 301 31
2008-05-28 09:12:49 51°34.511 2°55.065 177.4 0.1 268 31.2
2008-05-28 09:13:49 51°34.509 2°55.066 177.8 0.4 133 31
2008-05-28 09:14:49 51°34.498 2°55.065 184.9 0.9 196 30.7
2008-05-28 09:15:49 51°34.486 2°55.062 184.3 0.7 186 31.2
2008-05-28 09:16:49 51°34.479 2°55.068 176.3 0.5 133 30.9
2008-05-28 09:17:49 51°34.475 2°55.077 173.8 0.4 119 30.9
2008-05-28 09:18:49 51°34.476 2°55.084 174.8 0.3 105 30.7
2008-05-28 09:19:49 51°34.463 2°55.066 228.6 2.2 248 30.6
2008-05-28 09:20:49 51°34.49 2°54.993 312.4 4.2 331 30.7
2008-05-28 09:21:49 51°34.566 2°55.013 40 5.3 38 31.8
2008-05-28 09:22:49 51°34.655 2°55.214 59.3 11.8 57 31.4
2008-05-28 09:23:49 51°34.757 2°55.513 64.6 12.9 61 33.8
2008-05-28 09:24:49 51°34.862 2°55.817 66.7 13.1 64 33.3
2008-05-28 09:25:49 51°34.955 2°56.128 67.4 12.8 64 33.6
2008-05-28 09:26:49 51°35.054 2°56.442 65.6 13.3 61 34.8
2008-05-28 09:27:49 51°35.155 2°56.751 67.9 13 65 34
2008-05-28 09:28:49 51°35.248 2°57.065 68.6 13 63 35.4
2008-05-28 09:29:49 51°35.34 2°57.381 69 13.1 64 33.1
2008-05-28 09:30:49 51°35.435 2°57.694 66.9 12.9 63 31.6
2008-05-28 09:31:49 51°35.531 2°58.003 67 12.8 64 35.6
2008-05-28 09:32:49 51°35.621 2°58.311 69.6 12.6 66 36
2008-05-28 09:33:49 51°35.714 2°58.618 66.7 12.8 62 33.3
2008-05-28 09:34:49 51°35.75 2°58.94 100.7 12.1 100 31.5
2008-05-28 09:35:49 51°35.671 2°59.229 125.5 11.9 120 33.8
2008-05-28 09:36:49 51°35.55 2°59.479 133.5 12 128 32.4
2008-05-28 09:37:49 51°35.423 2°59.718 132.8 11.6 131 30.6
2008-05-28 09:38:49 51°35.297 2°59.958 136 11.8 132 28.9
2008-05-28 09:39:49 51°35.171 3°0.194 132.5 11.6 129 27.8
2008-05-28 09:40:49 51°35.042 3°0.429 133.5 11.7 129 25.6
2008-05-28 09:41:49 51°34.914 3°0.662 133.8 11.7 130 22.5
2008-05-28 09:42:49 51°34.787 3°0.896 133.3 11.6 132 19
2008-05-28 09:43:49 51°34.64 3°1.082 156.3 11 159 17.1
2008-05-28 09:44:49 51°34.458 3°1.11 181.5 11.2 185 15.5
2008-05-28 09:45:49 51°34.312 3°0.941 230.7 11.4 236 15.6
2008-05-28 09:46:49 51°34.233 3°0.651 241.7 11.9 245 15
2008-05-28 09:47:47 51°34.164 3°0.364 240.7 7 251 14.8
2008-05-28 09:48:19 51°34.082 3°0.183 235.3 -999 240 16.9
2008-05-28 09:49:49 51°33.962 2°59.803 234.2 12.4 238 16.1
2008-05-28 09:50:49 51°33.851 2°59.524 234.4 11.9 238 18.5
2008-05-28 09:51:49 51°33.753 2°59.263 234.3 11.6 231 18.1
2008-05-28 09:52:49 51°33.645 2°58.999 232.3 11.8 239 19.2
2008-05-28 09:53:49 51°33.537 2°58.737 231.4 11.6 234 17.7
2008-05-28 09:54:49 51°33.425 2°58.476 231.5 11.8 236 20.1
2008-05-28 09:55:49 51°33.325 2°58.238 231.8 10.4 235 18.6
2008-05-28 09:56:49 51°33.231 2°58.01 231 10.3 237 20.1
2008-05-28 09:57:49 51°33.142 2°57.797 230.1 7.7 237 19.6
2008-05-28 09:58:49 51°33.094 2°57.677 222.7 3.6 237 20.9
2008-05-28 09:59:49 51°33.071 2°57.622 216.7 2 245 22.2
2008-05-28 10:00:49 51°33.065 2°57.589 216.3 1.1 267 22.2
2008-05-28 10:01:49 51°33.066 2°57.562 218.6 1 288 21.5
2008-05-28 10:02:49 51°33.078 2°57.538 221.1 0.9 309 21.3
2008-05-28 10:03:49 51°33.085 2°57.524 223.8 0.9 320 21.5
2008-05-28 10:04:49 51°33.1 2°57.509 229.2 1.2 330 21.8
2008-05-28 10:05:49 51°33.115 2°57.495 234.6 1.2 326 21.9
2008-05-28 10:06:49 51°33.13 2°57.482 236.4 0.9 331 22.4
2008-05-28 10:07:49 51°33.145 2°57.468 242.4 0.9 335 23.1
2008-05-28 10:08:49 51°33.161 2°57.455 245.8 0.8 328 23.3
2008-05-28 10:09:49 51°33.179 2°57.443 248.3 1 334 23.9
2008-05-28 10:10:49 51°33.194 2°57.431 250 1 333 24.2
2008-05-28 10:11:49 51°33.211 2°57.418 252.5 1.2 338 24.3
2008-05-28 10:12:49 51°33.228 2°57.407 253.8 1.3 338 24.5
2008-05-28 10:13:49 51°33.245 2°57.399 254.9 1.2 335 24.1
2008-05-28 10:14:49 51°33.264 2°57.393 255.9 1 347 23.5
2008-05-28 10:15:49 51°33.281 2°57.386 254.5 0.9 343 23.6
2008-05-28 10:16:49 51°33.298 2°57.376 252.1 1 340 23.3
2008-05-28 10:17:49 51°33.315 2°57.367 253.6 1 341 22.7
2008-05-28 10:18:49 51°33.331 2°57.357 254.6 1 333 22.1
2008-05-28 10:19:49 51°33.348 2°57.347 254.3 1.1 340 21.3
2008-05-28 10:20:49 51°33.363 2°57.34 253.2 1.1 339 22.6
2008-05-28 10:21:49 51°33.38 2°57.331 254.7 0.9 336 23.3
2008-05-28 10:22:49 51°33.396 2°57.32 256 1 334 23.2
2008-05-28 10:23:49 51°33.41 2°57.311 256.5 1 334 21.9
2008-05-28 10:24:49 51°33.427 2°57.296 257.4 1.1 343 22.9
2008-05-28 10:25:49 51°33.444 2°57.292 256 1 341 23.5
2008-05-28 10:26:49 51°33.461 2°57.28 254.8 1.2 341 24.2
2008-05-28 10:27:49 51°33.475 2°57.274 256.4 0.8 341 24
2008-05-28 10:28:49 51°33.492 2°57.263 259.2 1.2 339 24.7
2008-05-28 10:29:49 51°33.509 2°57.253 260 1 339 25.3
2008-05-28 10:30:49 51°33.525 2°57.243 261.2 1 336 25.4
2008-05-28 10:31:49 51°33.541 2°57.232 261.9 1 335 25.7
2008-05-28 10:32:49 51°33.556 2°57.222 261 1.1 339 25.9
2008-05-28 10:33:49 51°33.571 2°57.212 259.8 0.9 336 26.1
2008-05-28 10:34:49 51°33.597 2°57.204 257.5 1 339 25.2
2008-05-28 10:35:49 51°33.601 2°57.19 255.7 1.1 335 24.6
2008-05-28 10:36:49 51°33.617 2°57.178 257.8 1.2 334 25.7
2008-05-28 10:37:49 51°33.633 2°57.166 259.7 1.1 334 25.8
2008-05-28 10:38:49 51°33.647 2°57.152 260.7 1.1 331 26.8
2008-05-28 10:39:49 51°33.661 2°57.138 258.6 1 329 27.3
2008-05-28 10:40:49 51°33.676 2°57.125 259.4 0.9 329 27.6
2008-05-28 10:41:49 51°33.692 2°57.113 263.2 1.2 339 27.9
2008-05-28 10:42:49 51°33.708 2°57.099 263.4 1.2 334 27.7
2008-05-28 10:43:49 51°33.723 2°57.088 261.9 0.9 333 28
2008-05-28 10:44:49 51°33.739 2°57.076 264.6 1 332 27.8
2008-05-28 10:45:49 51°33.755 2°57.066 263.1 1.1 337 27.4
2008-05-28 10:46:49 51°33.771 2°57.056 263.4 1.1 338 27.5
2008-05-28 10:47:49 51°33.788 2°57.046 265.9 1 339 27.6
2008-05-28 10:48:49 51°33.804 2°57.036 265.5 1.2 340 28.1
2008-05-28 10:49:49 51°33.821 2°57.026 266.4 1 338 28.1
2008-05-28 10:50:49 51°33.839 2°57.017 264.8 1.1 345 28.2
2008-05-28 10:51:49 51°33.855 2°57.007 264.4 1.1 344 28.4
2008-05-28 10:52:49 51°33.872 2°56.997 265.5 0.9 335 28.6
2008-05-28 10:53:49 51°33.888 2°56.986 266.8 1.1 337 28.2
2008-05-28 10:54:49 51°33.905 2°56.975 267.2 1.1 340 27.4
2008-05-28 10:55:49 51°33.921 2°56.964 267 1.1 339 25.9
2008-05-28 10:56:49 51°33.937 2°56.955 264.9 1.1 339 26.3
2008-05-28 10:57:49 51°33.952 2°56.944 265 1 338 27
2008-05-28 10:58:49 51°33.967 2°56.932 264.9 1 334 27.7
2008-05-28 10:59:49 51°33.983 2°56.922 264 1.2 338 28.3
2008-05-28 11:00:49 51°33.974 2°56.868 215.1 4.5 219 28.4
2008-05-28 11:01:49 51°33.851 2°56.736 211.1 11.5 215 28.5
2008-05-28 11:02:49 51°33.685 2°56.57 207.3 12 211 28.3
2008-05-28 11:03:49 51°33.512 2°56.412 208 11.8 213 27.4
2008-05-28 11:04:49 51°33.338 2°56.256 205.9 12.1 213 26.1
2008-05-28 11:05:49 51°33.164 2°56.104 206 12.1 210 25.7
2008-05-28 11:06:49 51°32.978 2°55.997 193.2 11.8 194 25.4
2008-05-28 11:07:49 51°32.787 2°55.923 195.9 11.8 200 23.2
2008-05-28 11:08:49 51°32.617 2°55.766 217.7 11.7 224 22.4
2008-05-28 11:09:49 51°32.487 2°55.524 227.6 12.2 237 22.1
2008-05-28 11:10:49 51°32.372 2°55.258 234.1 12.3 236 21.6
2008-05-28 11:11:49 51°32.258 2°54.992 233 11.9 236 19.7
2008-05-28 11:12:49 51°32.141 2°54.727 232.4 12.3 233 21.5
2008-05-28 11:13:49 51°32.025 2°54.46 235.6 12.3 235 20.1
2008-05-28 11:14:49 51°31.924 2°54.175 238.6 12.4 239 21.5
2008-05-28 11:15:49 51°31.826 2°53.889 238.1 12.2 244 21.2
2008-05-28 11:16:49 51°31.727 2°53.606 238.6 12.3 241 21.4
2008-05-28 11:17:49 51°31.625 2°53.323 237.5 12.2 241 19.8
2008-05-28 11:18:49 51°31.516 2°53.044 236.1 12.3 235 21.1
2008-05-28 11:19:49 51°31.41 2°52.764 237.7 12.2 239 21.7
2008-05-28 11:20:49 51°31.301 2°52.486 235.8 12.5 239 21.8
2008-05-28 11:21:49 51°31.193 2°52.211 236.4 12.2 238 19
2008-05-28 11:22:49 51°31.085 2°51.937 236.8 12.1 238 20.5
2008-05-28 11:23:49 51°30.979 2°51.662 235.1 12.2 239 22
2008-05-28 11:24:49 51°30.87 2°51.386 236.7 12.2 240 20.2
2008-05-28 11:25:49 51°30.766 2°51.11 239.5 12.2 242 22.5
2008-05-28 11:26:49 51°30.665 2°50.828 239 12.3 242 22.2
2008-05-28 11:27:49 51°30.564 2°50.547 237.9 12.3 239 20.4
2008-05-28 11:28:49 51°30.465 2°50.265 239.4 12.2 238 22.6
2008-05-28 11:29:49 51°30.365 2°49.983 238 12.1 241 23.4
2008-05-28 11:30:49 51°30.264 2°49.7 239.1 12.1 240 18.8
2008-05-28 11:31:49 51°30.164 2°49.414 239.3 12.2 241 21.6
2008-05-28 11:32:49 51°30.066 2°49.126 240.6 12.3 242 23.6
2008-05-28 11:33:49 51°29.964 2°48.839 237.2 12.6 242 20.6
2008-05-28 11:34:49 51°29.863 2°48.555 238.4 12.4 239 22.9
2008-05-28 11:35:49 51°29.763 2°48.268 239.3 12.3 245 21.9
2008-05-28 11:36:49 51°29.667 2°47.975 240.9 12.1 243 21.3
2008-05-28 11:37:49 51°29.567 2°47.687 238 12.5 238 24.1
2008-05-28 11:38:49 51°29.464 2°47.398 238.7 12.5 240 19.7
2008-05-28 11:39:49 51°29.361 2°47.112 236.1 12.5 236 23.7
2008-05-28 11:40:49 51°29.255 2°46.829 238 12.3 239 20.7
2008-05-28 11:41:49 51°29.154 2°46.542 237.4 12.3 242 24.9
2008-05-28 11:42:49 51°29.051 2°46.259 239 12.2 237 23.7
2008-05-28 11:43:49 51°28.95 2°45.972 238.5 12.5 241 24.1
2008-05-28 11:44:49 51°28.851 2°45.684 239.5 12.4 241 24
2008-05-28 11:45:49 51°28.75 2°45.398 238.5 12.2 243 23.6
2008-05-28 11:46:49 51°28.65 2°45.111 236.9 12.4 241 25.6
2008-05-28 11:47:49 51°28.546 2°44.831 237.5 12.3 236 27.2
2008-05-28 11:48:49 51°28.444 2°44.552 237.4 12.3 240 29.4
2008-05-28 11:49:49 51°28.337 2°44.272 236.4 12.4 239 30.1
2008-05-28 11:50:49 51°28.23 2°43.988 237.5 12.5 241 28.5
2008-05-28 11:51:49 51°28.125 2°43.707 238.2 12.3 238 29.7
2008-05-28 11:52:49 51°28.019 2°43.425 237.8 12.4 241 31.3
2008-05-28 11:53:49 51°27.911 2°43.145 236.5 12.5 238 31.9
2008-05-28 11:54:49 51°27.801 2°42.862 237.3 12.5 240 31.2
2008-05-28 11:55:49 51°27.654 2°42.648 208.7 11.8 207 30.9
2008-05-28 11:56:49 51°27.46 2°42.596 178.2 12.1 180 31.1
2008-05-28 11:57:49 51°27.269 2°42.658 153.1 11.8 156 31.1
2008-05-28 11:58:49 51°27.099 2°42.813 145.3 11.6 141 30.7
2008-05-28 11:59:49 51°26.996 2°43.066 113.8 11.5 117 27.8
2008-05-28 12:00:49 51°26.963 2°43.363 98.3 11.1 97 28.2
2008-05-28 12:01:49 51°26.94 2°43.666 96.5 11.6 92 23.5
2008-05-28 12:02:49 51°26.94 2°43.971 85.3 11.5 84 23.2
2008-05-28 12:03:49 51°26.967 2°44.275 84 11.4 84 25
2008-05-28 12:04:49 51°27.016 2°44.572 73.8 11.8 69 24.7
2008-05-28 12:05:49 51°27.079 2°44.866 72.5 11.7 68 27.3
2008-05-28 12:06:49 51°27.139 2°45.168 73.9 12 75 27.1
2008-05-28 12:07:49 51°27.2 2°45.457 69.6 11.5 70 27.7
2008-05-28 12:08:49 51°27.264 2°45.741 67.9 11.4 70 28.3
2008-05-28 12:09:49 51°27.359 2°46.005 59.1 11.5 58 29.1
2008-05-28 12:10:49 51°27.457 2°46.265 60.1 11.8 58 29
2008-05-28 12:11:49 51°27.55 2°46.535 62.6 11.5 61 29.7
2008-05-28 12:12:49 51°27.645 2°46.801 62.4 11.5 57 30.7
2008-05-28 12:13:49 51°27.676 2°47.097 89.9 11.4 94 30.7
2008-05-28 12:14:49 51°27.656 2°47.403 94.3 11.6 102 30.6
2008-05-28 12:15:49 51°27.655 2°47.707 85.5 11.4 86 27.1
2008-05-28 12:16:49 51°27.69 2°48.003 71.7 11.3 71 26.2
2008-05-28 12:17:49 51°27.767 2°48.274 58.9 11.1 59 25.9
2008-05-28 12:18:49 51°27.872 2°48.524 55.9 11.4 56 29.7
2008-05-28 12:19:49 51°27.982 2°48.775 57.3 11.3 53 25.8
2008-05-28 12:20:49 51°28.087 2°49.026 57.3 11.2 63 25.3
2008-05-28 12:21:49 51°28.192 2°49.277 57.1 11.5 56 28.4
2008-05-28 12:22:49 51°28.293 2°49.53 57.5 11.4 60 28.3
2008-05-28 12:23:49 51°28.395 2°49.786 58.3 11.2 59 26.8
2008-05-28 12:24:49 51°28.494 2°50.041 57.4 11.3 61 26.6
2008-05-28 12:25:49 51°28.599 2°50.294 55.2 11.4 55 25.6
2008-05-28 12:26:49 51°28.702 2°50.547 53.8 11.4 53 26.2
2008-05-28 12:27:49 51°28.803 2°50.805 56.9 11.2 55 25.9
2008-05-28 12:28:49 51°28.905 2°51.062 58.1 11.4 63 27.1
2008-05-28 12:29:49 51°29.005 2°51.322 59.9 11.4 61 28
2008-05-28 12:30:49 51°29.109 2°51.579 56.3 11.6 57 28.6
2008-05-28 12:31:49 51°29.213 2°51.838 56 11.6 60 29.6
2008-05-28 12:32:49 51°29.315 2°52.101 56.5 11.8 60 29.3
2008-05-28 12:33:49 51°29.414 2°52.368 58 11.8 57 29.6
2008-05-28 12:34:49 51°29.513 2°52.632 59.1 11.6 53 30.4
2008-05-28 12:35:49 51°29.609 2°52.896 59.4 11.6 61 30.2
2008-05-28 12:36:49 51°29.709 2°53.156 57.2 11.6 56 30.8
2008-05-28 12:37:49 51°29.81 2°53.421 58.8 11.7 65 31.2
2008-05-28 12:38:49 51°29.911 2°53.687 60.7 11.6 57 31.7
2008-05-28 12:39:49 51°30.012 2°53.95 58.9 11.5 54 30.6
2008-05-28 12:40:49 51°30.118 2°54.206 56.9 11.7 55 30.8
2008-05-28 12:41:49 51°30.222 2°54.468 59.4 11.6 57 32.5
2008-05-28 12:42:49 51°30.323 2°54.723 57.8 11 54 33.3
2008-05-28 12:43:49 51°30.42 2°54.978 58.7 11 56 34.5
2008-05-28 12:44:49 51°30.516 2°55.241 59.3 11.7 60 36
2008-05-28 12:45:49 51°30.612 2°55.502 59.5 11.3 61 37.3
2008-05-28 12:46:49 51°30.709 2°55.76 60.1 11.1 53 36.3
2008-05-28 12:47:49 51°30.803 2°56.018 59.4 11.3 61 35
2008-05-28 12:48:49 51°30.897 2°56.277 61.3 11.2 62 32.8
2008-05-28 12:49:49 51°30.993 2°56.532 60.2 10.9 56 32.5
2008-05-28 12:50:49 51°31.086 2°56.788 59.7 11.1 59 31.4
2008-05-28 12:51:49 51°31.176 2°57.044 60.5 11.1 62 31
2008-05-28 12:52:49 51°31.262 2°57.302 63.8 11 60 32.2
2008-05-28 12:53:49 51°31.35 2°57.56 62 11.2 57 31.5
2008-05-28 12:54:49 51°31.429 2°57.828 66 10.8 62 31.7
2008-05-28 12:55:49 51°31.51 2°58.095 65 11.5 61 30.5
2008-05-28 12:56:49 51°31.589 2°58.365 63.5 11.1 65 30
2008-05-28 12:57:49 51°31.671 2°58.635 62.6 11.4 59 29.7
2008-05-28 12:58:49 51°31.749 2°58.905 64.9 11.5 67 29
2008-05-28 12:59:49 51°31.83 2°59.176 64.8 11 64 29.1
2008-05-28 13:00:49 51°31.914 2°59.442 61.5 11.1 64 29.3
2008-05-28 13:01:49 51°31.994 2°59.709 64 11.2 66 27.9
2008-05-28 13:02:49 51°32.074 2°59.975 65.7 10.8 64 27.1
2008-05-28 13:03:49 51°32.155 3°0.243 65.2 11.1 64 27
2008-05-28 13:04:49 51°32.242 3°0.51 60.3 11.4 58 26.1
2008-05-28 13:05:49 51°32.331 3°0.773 60.5 11.3 60 25
2008-05-28 13:06:49 51°32.427 3°1.034 58.7 11.3 56 23.6
2008-05-28 13:07:49 51°32.523 3°1.295 60.7 11.5 61 23.4
2008-05-28 13:08:50 51°32.621 3°1.562 61.3 11.1 57 23
2008-05-28 13:09:49 51°32.714 3°1.821 61.8 11.3 61 22.6
2008-05-28 13:10:49 51°32.773 3°2.107 79.7 11.3 84 22.1
2008-05-28 13:11:49 51°32.804 3°2.411 80.3 11.7 83 19.8
2008-05-28 13:12:49 51°32.838 3°2.715 81.9 11.5 78 21.2
2008-05-28 13:13:49 51°32.86 3°3.022 90 11.7 91 21.8
2008-05-28 13:14:45 51°32.824 3°3.306 107.3 2.1 115 23.1
2008-05-28 13:15:49 51°32.824 3°3.306 107.7 -999 294 26.1
2008-05-28 13:16:49 51°32.686 3°3.913 116.5 11.6 120 29.9
2008-05-28 13:17:49 51°32.557 3°4.161 131.8 11.8 137 31.3
2008-05-28 13:18:49 51°32.396 3°4.354 139.7 12.2 145 28.5
2008-05-28 13:19:49 51°32.232 3°4.543 141 11.8 148 28
2008-05-28 13:20:49 51°32.037 3°4.62 175.3 12.3 183 28
2008-05-28 13:21:49 51°31.844 3°4.509 207.7 12.7 211 28.3
2008-05-28 13:22:49 51°31.688 3°4.278 227.8 13.1 231 27.4
2008-05-28 13:23:49 51°31.556 3°4.002 231.4 13.1 234 27.1
2008-05-28 13:24:49 51°31.43 3°3.721 233.7 13 236 27.3
2008-05-28 13:25:49 51°31.303 3°3.439 232.2 13.1 233 28
2008-05-28 13:26:49 51°31.185 3°3.152 235.9 12.9 237 27.8
2008-05-28 13:27:50 51°31.072 3°2.848 239.9 13 239 27.5
2008-05-28 13:28:49 51°30.969 3°2.552 238.7 12.9 241 27.8
2008-05-28 13:29:49 51°30.862 3°2.252 238.8 13 241 27.7
2008-05-28 13:30:49 51°30.756 3°1.951 239.3 12.9 242 27
2008-05-28 13:31:49 51°30.65 3°1.65 239.5 13 243 26.7
2008-05-28 13:32:49 51°30.539 3°1.35 237.1 13.2 238 27
2008-05-28 13:33:49 51°30.428 3°1.05 237.8 13.2 239 27
2008-05-28 13:34:50 51°30.315 3°0.743 238.1 13.1 238 27.2
2008-05-28 13:35:49 51°30.206 3°0.45 237.6 13.1 237 27.4
2008-05-28 13:36:50 51°30.093 3°0.144 240.1 13.1 241 26.5
2008-05-28 13:37:49 51°29.99 2°59.844 241.9 12.9 242 26.6
2008-05-28 13:38:49 51°29.883 2°59.54 240.4 13.1 243 26.7
2008-05-28 13:39:50 51°29.774 2°59.227 241 13.2 241 26.2
2008-05-28 13:40:49 51°29.671 2°58.927 240.1 13.2 243 26.2
2008-05-28 13:41:50 51°29.565 2°58.617 240.9 13.1 243 26.2
2008-05-28 13:42:49 51°29.463 2°58.321 239.6 13.2 241 24.6
2008-05-28 13:43:49 51°29.356 2°58.016 239.4 13.1 239 25
2008-05-28 13:44:49 51°29.252 2°57.713 241 12.8 241 24.5
2008-05-28 13:45:49 51°29.145 2°57.41 240 13 241 24.7
2008-05-28 13:46:49 51°29.043 2°57.107 240.1 13 241 24.3
2008-05-28 13:47:49 51°28.938 2°56.803 241.1 13 240 22.9
2008-05-28 13:48:49 51°28.833 2°56.497 240.4 12.9 239 24
2008-05-28 13:49:49 51°28.731 2°56.192 240.1 13.1 243 23.8
2008-05-28 13:50:50 51°28.625 2°55.881 240.9 12.9 241 23.2
2008-05-28 13:51:49 51°28.524 2°55.581 240.9 13 240 22.8
2008-05-28 13:52:49 51°28.42 2°55.275 239.6 13.2 243 22.4
2008-05-28 13:53:49 51°28.316 2°54.968 240.9 12.9 241 20
2008-05-28 13:54:49 51°28.21 2°54.665 239.3 13.2 240 19.9
2008-05-28 13:55:49 51°28.106 2°54.359 239.3 13.1 240 19.3
2008-05-28 13:56:49 51°27.999 2°54.054 239.9 13.1 242 20.9
2008-05-28 13:57:50 51°27.892 2°53.745 238.7 13.1 239 21.2
2008-05-28 13:58:49 51°27.788 2°53.445 240.6 13.2 245 20.9
2008-05-28 13:59:49 51°27.681 2°53.145 239.7 12.9 237 20.9
2008-05-28 14:00:49 51°27.573 2°52.842 239.9 13.3 239 19.8
2008-05-28 14:01:49 51°27.466 2°52.537 240.1 13.1 241 22.4
2008-05-28 14:02:49 51°27.359 2°52.233 239.5 13.3 242 21.4
2008-05-28 14:03:49 51°27.252 2°51.929 237.5 13.2 240 21.9
2008-05-28 14:04:49 51°27.14 2°51.629 237.6 13.2 241 21.2
2008-05-28 14:05:49 51°27.028 2°51.327 239.1 13.1 240 19.4
2008-05-28 14:06:50 51°26.912 2°51.026 234.7 13 240 21.4
2008-05-28 14:07:50 51°26.794 2°50.734 235 13.1 236 21.2
2008-05-28 14:08:49 51°26.68 2°50.446 235.7 12.9 239 22.8
2008-05-28 14:09:49 51°26.564 2°50.156 235.3 12.9 234 22.1
2008-05-28 14:10:49 51°26.446 2°49.866 235 12.9 235 22.4
2008-05-28 14:11:49 51°26.33 2°49.574 234.2 13.2 241 22.7
2008-05-28 14:12:49 51°26.214 2°49.283 235.2 13 238 23
2008-05-28 14:13:50 51°26.092 2°48.991 231.6 12.8 229 23.3
2008-05-28 14:14:50 51°25.961 2°48.717 229.1 13.2 234 23.6
2008-05-28 14:15:50 51°25.826 2°48.45 227.7 12.8 228 23.4
2008-05-28 14:16:49 51°25.679 2°48.209 219 12.7 222 23.5
2008-05-28 14:17:50 51°25.503 2°48.008 207.9 12.7 211 24.6
2008-05-28 14:18:49 51°25.321 2°47.856 199 12.4 203 26.4
2008-05-28 14:19:49 51°25.128 2°47.725 197.8 12.7 203 27.5
2008-05-28 14:20:50 51°24.932 2°47.602 194 12.6 199 30
2008-05-28 14:21:49 51°24.734 2°47.537 181.4 12.1 187 30.2
2008-05-28 14:22:50 51°24.531 2°47.558 163.2 11.8 167 28.9
2008-05-28 14:23:49 51°24.351 2°47.665 149.3 11.6 154 25.7
2008-05-28 14:24:50 51°24.171 2°47.79 151.1 11.7 156 24.3
2008-05-28 14:25:49 51°23.996 2°47.908 153.7 11.7 160 23.6
2008-05-28 14:26:50 51°23.811 2°48.028 154.3 11.6 156 19.5
2008-05-28 14:27:49 51°23.631 2°48.139 153.2 12 157 21.2
2008-05-28 14:28:49 51°23.448 2°48.253 153 11.9 160 21
2008-05-28 14:29:50 51°23.26 2°48.369 153.3 11.9 160 20.7
2008-05-28 14:30:49 51°23.076 2°48.48 153.6 12 160 17.8
2008-05-28 14:31:50 51°22.886 2°48.598 152.9 12.1 161 18.8
2008-05-28 14:32:49 51°22.698 2°48.713 154.2 12.3 159 18
2008-05-28 14:33:50 51°22.505 2°48.837 154.5 12.6 159 18.4
2008-05-28 14:34:49 51°22.32 2°48.957 154.6 12 157 19.5
2008-05-28 14:35:49 51°22.133 2°49.08 153.9 12.2 157 23.7
2008-05-28 14:36:49 51°21.946 2°49.199 155.3 12 159 23.3
2008-05-28 14:37:49 51°21.762 2°49.318 153.7 12.1 158 23.2
2008-05-28 14:38:50 51°21.573 2°49.441 154.2 12 156 22.5
2008-05-28 14:39:49 51°21.391 2°49.559 156.3 12.1 160 21.7
2008-05-28 14:40:50 51°21.201 2°49.673 155.4 12 157 22.3
2008-05-28 14:41:49 51°21.016 2°49.784 157.2 12.3 159 23.1
2008-05-28 14:42:50 51°20.824 2°49.897 157.4 12.3 160 23.1
2008-05-28 14:43:49 51°20.64 2°50.007 157 11.9 161 22.3
2008-05-28 14:44:49 51°20.451 2°50.119 156.5 12.2 161 20.3
2008-05-28 14:45:50 51°20.258 2°50.233 156 12.3 159 17.4
2008-05-28 14:46:49 51°20.072 2°50.348 155.7 12.2 159 16
2008-05-28 14:47:50 51°19.88 2°50.466 157.4 12.3 159 14
2008-05-28 14:48:49 51°19.694 2°50.583 157.4 12.5 159 12.2
2008-05-28 14:49:50 51°19.501 2°50.7 158.6 12.2 160 12.6
2008-05-28 14:50:49 51°19.325 2°50.839 138.3 11.7 136 14.5
2008-05-28 14:51:50 51°19.208 2°51.101 123.5 11.9 125 15.2
2008-05-28 14:52:50 51°19.089 2°51.357 122.6 12 121 15.4
2008-05-28 14:53:50 51°18.957 2°51.597 137.8 12.2 140 14.2
2008-05-28 14:54:50 51°18.773 2°51.729 157.2 12.2 160 14.1
2008-05-28 14:55:49 51°18.581 2°51.826 163.5 12 166 12.9
2008-05-28 14:56:50 51°18.378 2°51.903 166.2 12.2 166 11.9
2008-05-28 14:57:49 51°18.182 2°51.977 166 12.3 166 11.4
2008-05-28 14:58:50 51°17.98 2°52.054 166.6 12.4 168 10.9
2008-05-28 14:59:50 51°17.781 2°52.133 163.4 12.3 165 10.7
2008-05-28 15:00:49 51°17.585 2°52.218 163.6 12.3 164 10.9
2008-05-28 15:01:50 51°17.381 2°52.299 164.4 12.7 166 10.7
2008-05-28 15:02:49 51°17.191 2°52.399 154.3 12.2 154 10.5
2008-05-28 15:03:50 51°17.009 2°52.566 147.3 12.6 149 10.2
2008-05-28 15:04:49 51°16.841 2°52.742 143.3 12.4 146 9.9
2008-05-28 15:05:50 51°16.671 2°52.929 145.5 12.2 147 11.6
2008-05-28 15:06:49 51°16.505 2°53.106 144.3 12.2 146 12.1
2008-05-28 15:07:50 51°16.328 2°53.274 149.4 12.4 148 12
2008-05-28 15:08:49 51°16.149 2°53.41 157.6 11.8 159 12.2
2008-05-28 15:09:49 51°15.961 2°53.53 156 12.2 158 11.7
2008-05-28 15:10:50 51°15.769 2°53.647 157.4 11.9 159 11.5
2008-05-28 15:11:50 51°15.58 2°53.762 158.2 12.2 160 11.1
2008-05-28 15:12:50 51°15.395 2°53.884 154.7 11.9 157 10.3
2008-05-28 15:13:49 51°15.213 2°54.003 156.5 12.1 157 9.9
2008-05-28 15:14:50 51°15.028 2°54.14 152.5 12.3 154 9.4
2008-05-28 15:15:50 51°14.853 2°54.293 146.2 11.9 147 10.1
2008-05-28 15:16:50 51°14.698 2°54.499 135.5 12.3 137 10.6
2008-05-28 15:17:50 51°14.563 2°54.736 126.2 12.1 127 10.5
2008-05-28 15:18:49 51°14.44 2°54.987 126.7 12 126 10.7
2008-05-28 15:19:50 51°14.329 2°55.207 137.2 9.2 139 8.1
2008-05-28 15:20:52 51°14.232 2°55.334 139.3 5.9 142 10.9
2008-05-28 15:21:51 51°14.166 2°55.407 151.2 4.4 153 -999
2008-05-28 15:22:53 51°14.098 2°55.458 153.8 4.6 154 11.1
2008-05-28 15:23:52 51°14.024 2°55.507 156.7 5 159 11